^^
Meteo Knjazevac Station Historical Data
Daily Summary for July 23, 2021 Units:  Both    English   Metric
Daily Weekly Monthly Yearly Custom
  High: Low: Average:
Temperature: 71.9 °F /  22.2 °C 67.2 °F /  19.6 °C 69.3 °F /  20.7 °C
Dew Point: 68.8 °F /  20.4 °C 65.7 °F /  18.7 °C 67.3 °F /  19.6 °C
Humidity: 95% 90% 93%
Wind Speed: 2mph /  3.2km/h - 0.7mph /  1.1km/h
Wind Gust: 6mph /  9.7km/h - -
Wind- - West
Pressure: 30.03 in /  1016.8 hPa 30.02 in /  1016.5 hPa -
Precipitation: 0.00 in /  0 mm    
Historical Graphs
 
 
Tabular Data for July 23, 2021
Time Temperature Dew Point Pressure Wind Wind Speed Wind Gust Humidity Rainfall Rate (Hourly) solar Conditions
00:00 71.9 °F /  22.2 °C 68.8 °F /  20.4 °C 30.02in /  1016.5hPa WNW 1mph /  1.6km/h 3mph /  4.8km/h 90% 0.00in /  0mm 0 W/m2
00:10 71.8 °F /  22.1 °C 68.7 °F /  20.4 °C 30.02in /  1016.5hPa Calm   2mph /  3.2km/h 90% 0.00in /  0mm 0 W/m2
00:20 71.6 °F /  22 °C 68.5 °F /  20.3 °C 30.02in /  1016.5hPa Calm   1mph /  1.6km/h 90% 0.00in /  0mm 0 W/m2
00:30 71.4 °F /  21.9 °C 68.3 °F /  20.2 °C 30.02in /  1016.5hPa Calm   1mph /  1.6km/h 90% 0.00in /  0mm 0 W/m2
00:40 71.2 °F /  21.8 °C 68.5 °F /  20.3 °C 30.02in /  1016.5hPa NW 2mph /  3.2km/h 2mph /  3.2km/h 91% 0.00in /  0mm 0 W/m2
00:50 70.7 °F /  21.5 °C 67.9 °F /  19.9 °C 30.02in /  1016.5hPa West 1mph /  1.6km/h 2mph /  3.2km/h 91% 0.00in /  0mm 0 W/m2
01:00 70.3 °F /  21.3 °C 67.6 °F /  19.8 °C 30.02in /  1016.5hPa Calm   2mph /  3.2km/h 91% 0.00in /  0mm 0 W/m2
01:10 70 °F /  21.1 °C 67.9 °F /  19.9 °C 30.02in /  1016.5hPa Calm   2mph /  3.2km/h 93% 0.00in /  0mm 0 W/m2
01:20 69.6 °F /  20.9 °C 67.5 °F /  19.7 °C 30.02in /  1016.5hPa SW 2mph /  3.2km/h 3mph /  4.8km/h 93% 0.00in /  0mm 0 W/m2
01:30 69.1 °F /  20.6 °C 67.3 °F /  19.6 °C 30.02in /  1016.5hPa WNW 2mph /  3.2km/h 4mph /  6.4km/h 94% 0.00in /  0mm 0 W/m2
01:40 69.1 °F /  20.6 °C 67.6 °F /  19.8 °C 30.03in /  1016.8hPa West 2mph /  3.2km/h 4mph /  6.4km/h 95% 0.00in /  0mm 0 W/m2
01:50 68.9 °F /  20.5 °C 67.4 °F /  19.7 °C 30.03in /  1016.8hPa West 1mph /  1.6km/h 6mph /  9.7km/h 95% 0.00in /  0mm 0 W/m2
02:00 68.7 °F /  20.4 °C 67.2 °F /  19.6 °C 30.03in /  1016.8hPa West 2mph /  3.2km/h 3mph /  4.8km/h 95% 0.00in /  0mm 0 W/m2
02:10 68.5 °F /  20.3 °C 67.1 °F /  19.5 °C 30.03in /  1016.8hPa Calm   3mph /  4.8km/h 95% 0.00in /  0mm 0 W/m2
02:20 68.5 °F /  20.3 °C 67.1 °F /  19.5 °C 30.03in /  1016.8hPa West 1mph /  1.6km/h 2mph /  3.2km/h 95% 0.00in /  0mm 0 W/m2
02:30 68.3 °F /  20.2 °C 66.8 °F /  19.3 °C 30.03in /  1016.8hPa WSW 1mph /  1.6km/h 3mph /  4.8km/h 95% 0.00in /  0mm 0 W/m2
02:40 68 °F /  20 °C 66.5 °F /  19.2 °C 30.03in /  1016.8hPa Calm   2mph /  3.2km/h 95% 0.00in /  0mm 0 W/m2
02:50 68 °F /  20 °C 66.5 °F /  19.2 °C 30.03in /  1016.8hPa Calm   1mph /  1.6km/h 95% 0.00in /  0mm 0 W/m2
03:00 67.8 °F /  19.9 °C 66.3 °F /  19.1 °C 30.02in /  1016.5hPa West 1mph /  1.6km/h 2mph /  3.2km/h 95% 0.00in /  0mm 0 W/m2
03:10 67.5 °F /  19.7 °C 66 °F /  18.9 °C 30.03in /  1016.8hPa Calm   1mph /  1.6km/h 95% 0.00in /  0mm 0 W/m2
03:20 67.5 °F /  19.7 °C 66 °F /  18.9 °C 30.03in /  1016.8hPa Calm   1mph /  1.6km/h 95% 0.00in /  0mm 0 W/m2
03:30 67.2 °F /  19.6 °C 65.7 °F /  18.7 °C 30.03in /  1016.8hPa Calm   2mph /  3.2km/h 95% 0.00in /  0mm 0 W/m2
Knjazevac, Serbia
Compliments of Weather Underground - 2 mb